createdAt,value
2022-08-07T00:02:36.093Z,5.63
2022-08-07T00:04:09.673Z,4.97
2022-08-07T00:06:40.969Z,5.30
2022-08-07T00:09:21.215Z,3.67
2022-08-07T00:11:56.012Z,4.78
2022-08-07T00:14:31.263Z,4.07
2022-08-07T00:17:03.006Z,4.03
2022-08-07T00:20:00.668Z,3.90
2022-08-07T00:22:24.537Z,4.03
2022-08-07T00:25:15.831Z,3.50
2022-08-07T00:27:52.411Z,3.95
2022-08-07T00:30:27.121Z,4.78
2022-08-07T00:32:59.393Z,3.50
2022-08-07T00:35:29.715Z,4.57
2022-08-07T00:37:58.554Z,4.05
2022-08-07T00:40:36.398Z,5.00
2022-08-07T00:43:09.699Z,5.65
2022-08-07T00:45:40.365Z,3.67
2022-08-07T00:48:11.106Z,4.00
2022-08-07T00:50:43.771Z,3.40
2022-08-07T00:53:20.837Z,3.97
2022-08-07T00:56:00.782Z,3.80
2022-08-07T00:58:30.980Z,3.15
2022-08-07T01:00:58.859Z,3.40
2022-08-07T01:03:55.611Z,4.85
2022-08-07T01:06:16.381Z,5.25
2022-08-07T01:08:53.486Z,3.20
2022-08-07T01:12:09.387Z,2.75
2022-08-07T01:14:10.343Z,3.08
2022-08-07T01:16:38.371Z,4.68
2022-08-07T01:19:18.333Z,3.30
2022-08-07T01:21:53.284Z,3.88
2022-08-07T01:24:25.009Z,3.97
2022-08-07T01:26:52.679Z,3.45
2022-08-07T01:29:27.817Z,4.05
2022-08-07T01:31:59.332Z,3.65
2022-08-07T01:34:31.422Z,3.15
2022-08-07T01:37:01.853Z,3.10
2022-08-07T01:39:40.922Z,5.25
2022-08-07T01:42:38.884Z,4.40
2022-08-07T01:45:22.997Z,3.80
2022-08-07T01:48:29.816Z,3.38
2022-08-07T01:50:55.654Z,4.38
2022-08-07T01:54:11.745Z,2.83
2022-08-07T01:56:22.379Z,3.40
2022-08-07T01:59:03.542Z,2.72
2022-08-07T02:02:02.226Z,3.80
2022-08-07T02:04:30.985Z,4.97
2022-08-07T02:07:02.972Z,3.83
2022-08-07T02:09:52.401Z,4.72
2022-08-07T02:12:31.026Z,4.13
2022-08-07T02:15:01.359Z,3.88
2022-08-07T02:17:38.503Z,5.00
2022-08-07T02:20:17.446Z,3.72
2022-08-07T02:22:55.225Z,4.40
2022-08-07T02:26:10.589Z,4.28
2022-08-07T02:28:15.588Z,4.80
2022-08-07T02:30:55.056Z,2.97
2022-08-07T02:33:42.103Z,3.55
2022-08-07T02:36:28.601Z,3.63
2022-08-07T02:39:16.205Z,4.50
2022-08-07T02:41:47.251Z,2.90
2022-08-07T02:44:18.696Z,3.33
2022-08-07T02:46:52.588Z,4.63
2022-08-07T02:49:28.668Z,3.45
2022-08-07T02:52:12.992Z,4.70
2022-08-07T02:54:43.563Z,3.38
2022-08-07T02:57:14.448Z,4.40
2022-08-07T02:59:54.988Z,3.03
2022-08-07T03:02:29.290Z,3.30
2022-08-07T03:04:58.765Z,3.10
2022-08-07T03:07:58.967Z,4.20
2022-08-07T03:10:18.171Z,3.88
2022-08-07T03:12:52.757Z,4.05
2022-08-07T03:15:30.366Z,3.97
2022-08-07T03:18:07.632Z,3.47
2022-08-07T03:20:36.831Z,3.15
2022-08-07T03:23:06.915Z,4.15
2022-08-07T03:25:46.774Z,4.13
2022-08-07T03:28:38.039Z,3.88
2022-08-07T03:31:24.419Z,3.42
2022-08-07T03:34:02.380Z,2.95
2022-08-07T03:36:34.324Z,4.93
2022-08-07T03:39:06.577Z,4.05
2022-08-07T03:41:42.231Z,3.55
2022-08-07T03:44:16.575Z,3.50
2022-08-07T03:47:11.215Z,4.40
2022-08-07T03:49:36.494Z,4.28
2022-08-07T03:52:04.049Z,3.20
2022-08-07T03:54:35.606Z,3.50
2022-08-07T03:57:07.601Z,4.75
2022-08-07T03:59:37.412Z,3.70
2022-08-07T04:02:15.091Z,5.82
2022-08-07T04:04:43.104Z,4.53
2022-08-07T04:07:35.831Z,3.20
2022-08-07T04:10:02.121Z,4.15
2022-08-07T04:12:35.242Z,3.25
2022-08-07T04:18:11.263Z,5.68
2022-08-07T04:20:22.814Z,3.13
2022-08-07T04:23:01.267Z,5.38
2022-08-07T04:25:35.954Z,3.27
2022-08-07T04:28:08.445Z,4.00
2022-08-07T04:30:55.526Z,4.97
2022-08-07T04:33:27.598Z,5.35
2022-08-07T04:35:55.876Z,4.03
2022-08-07T04:38:27.738Z,4.45
2022-08-07T04:40:57.019Z,3.67
2022-08-07T04:44:10.111Z,3.55
2022-08-07T04:47:08.263Z,4.15
2022-08-07T04:49:58.043Z,3.85
2022-08-07T04:53:04.234Z,3.30
2022-08-07T04:58:14.298Z,3.92
2022-08-07T05:01:55.424Z,5.72
2022-08-07T05:04:43.877Z,3.47
2022-08-07T05:07:29.162Z,3.90
2022-08-07T05:10:07.882Z,5.55
2022-08-07T05:12:51.531Z,5.25
2022-08-07T05:15:27.553Z,3.40
2022-08-07T05:18:08.659Z,3.05
2022-08-07T05:20:45.013Z,4.07
2022-08-07T05:23:31.020Z,5.90
2022-08-07T05:26:13.091Z,3.22
2022-08-07T05:28:50.386Z,5.63
2022-08-07T05:31:34.642Z,5.53
2022-08-07T05:34:11.076Z,6.97
2022-08-07T05:36:43.499Z,4.43
2022-08-07T05:40:05.902Z,5.75
2022-08-07T05:42:12.275Z,4.78
2022-08-07T05:44:52.704Z,4.05
2022-08-07T05:47:38.408Z,5.40
2022-08-07T05:50:17.944Z,8.43
2022-08-07T05:52:45.078Z,5.47
2022-08-07T05:55:14.223Z,5.38
2022-08-07T05:57:46.457Z,3.65
2022-08-07T06:00:17.759Z,5.57
2022-08-07T06:02:58.096Z,15.52
2022-08-07T06:05:28.863Z,5.72
2022-08-07T06:08:14.818Z,3.78
2022-08-07T06:10:51.365Z,5.80
2022-08-07T06:14:10.802Z,4.53
2022-08-07T06:16:13.499Z,3.63
2022-08-07T06:18:43.152Z,4.38
2022-08-07T06:22:16.732Z,3.53
2022-08-07T06:24:46.200Z,3.28
2022-08-07T06:26:54.428Z,4.35
2022-08-07T06:29:27.409Z,4.00
2022-08-07T06:31:58.348Z,4.15
2022-08-07T06:34:29.760Z,3.50
2022-08-07T06:36:59.001Z,3.65
2022-08-07T06:40:16.668Z,4.68
2022-08-07T06:42:32.939Z,4.47
2022-08-07T06:45:17.909Z,2.95
2022-08-07T06:47:58.391Z,3.92
2022-08-07T06:50:36.154Z,4.15
2022-08-07T06:53:18.606Z,4.35
2022-08-07T06:56:01.189Z,5.43
2022-08-07T06:58:35.808Z,4.22
2022-08-07T07:01:14.252Z,4.18
2022-08-07T07:03:50.203Z,4.68
2022-08-07T07:06:26.724Z,5.45
2022-08-07T07:08:55.118Z,3.72
2022-08-07T07:12:08.309Z,3.00
2022-08-07T07:14:14.134Z,3.63
2022-08-07T07:16:49.840Z,3.88
2022-08-07T07:19:55.652Z,6.78
2022-08-07T07:22:35.600Z,5.72
2022-08-07T07:26:33.051Z,4.35
2022-08-07T07:28:42.669Z,3.63
2022-08-07T07:31:25.643Z,3.90
2022-08-07T07:34:03.869Z,3.63
2022-08-07T07:36:33.759Z,3.95
2022-08-07T07:39:03.636Z,4.32
2022-08-07T07:41:50.878Z,3.25
2022-08-07T07:44:26.139Z,4.13
2022-08-07T07:47:01.231Z,3.78
2022-08-07T07:50:36.178Z,4.50
2022-08-07T07:52:28.781Z,5.65
2022-08-07T07:54:56.003Z,4.15
2022-08-07T07:57:51.654Z,5.68
2022-08-07T08:00:20.986Z,4.45
2022-08-07T08:03:05.373Z,13.27
2022-08-07T08:05:50.846Z,4.43
2022-08-07T08:08:35.528Z,3.85
2022-08-07T08:11:08.671Z,3.92
2022-08-07T08:13:53.848Z,3.53
2022-08-07T08:16:31.224Z,3.58
2022-08-07T08:19:00.531Z,5.10
2022-08-07T08:22:07.749Z,3.35
2022-08-07T08:25:09.390Z,3.85
2022-08-07T08:27:57.094Z,3.35
2022-08-07T08:30:29.050Z,4.05
2022-08-07T08:33:03.019Z,4.97
2022-08-07T08:35:39.441Z,5.00
2022-08-07T08:38:20.731Z,4.45
2022-08-07T08:41:13.747Z,6.53
2022-08-07T08:43:58.678Z,4.30
2022-08-07T08:46:38.479Z,3.78
2022-08-07T08:49:17.484Z,4.18
2022-08-07T08:52:35.987Z,4.05
2022-08-07T08:55:20.997Z,3.92
2022-08-07T08:58:32.076Z,3.55
2022-08-07T09:01:15.360Z,4.15
2022-08-07T09:04:00.308Z,4.95
2022-08-07T09:06:40.300Z,4.15
2022-08-07T09:09:33.189Z,5.03
2022-08-07T09:12:36.156Z,4.57
2022-08-07T09:16:24.459Z,3.92
2022-08-07T09:18:11.419Z,4.35
2022-08-07T09:20:57.989Z,4.22
2022-08-07T09:24:33.686Z,4.65
2022-08-07T09:26:47.884Z,4.05
2022-08-07T09:30:04.039Z,4.68
2022-08-07T09:32:53.458Z,4.30
2022-08-07T09:36:02.638Z,3.58
2022-08-07T09:38:53.601Z,3.95
2022-08-07T09:42:04.060Z,5.13
2022-08-07T09:44:58.706Z,4.35
2022-08-07T09:48:00.907Z,4.47
2022-08-07T09:50:51.486Z,4.00
2022-08-07T09:53:23.313Z,3.90
2022-08-07T09:56:37.441Z,4.00
2022-08-07T09:59:14.036Z,4.40
2022-08-07T10:02:17.047Z,3.13
2022-08-07T10:05:01.428Z,4.35
2022-08-07T10:07:53.419Z,4.57
2022-08-07T10:10:24.929Z,3.97
2022-08-07T10:14:00.767Z,5.10
2022-08-07T10:16:50.532Z,5.53
2022-08-07T10:19:40.020Z,4.25
2022-08-07T10:22:36.878Z,4.67
2022-08-07T10:25:43.028Z,4.15
2022-08-07T10:28:49.567Z,3.97
2022-08-07T10:31:58.539Z,3.15
2022-08-07T10:34:40.375Z,5.35
2022-08-07T10:37:48.193Z,11.13
2022-08-07T10:40:41.763Z,15.32
2022-08-07T10:43:34.773Z,5.38
2022-08-07T10:46:13.074Z,6.55
2022-08-07T10:48:57.532Z,7.22
2022-08-07T10:52:01.855Z,3.45
2022-08-07T10:54:53.343Z,4.55
2022-08-07T10:58:11.074Z,4.97
2022-08-07T11:01:11.760Z,4.28
2022-08-07T11:03:52.484Z,6.82
2022-08-07T11:06:42.123Z,5.60
2022-08-07T11:10:08.403Z,3.58
2022-08-07T11:12:31.263Z,4.03
2022-08-07T11:15:04.301Z,4.38
2022-08-07T11:18:03.747Z,4.07
2022-08-07T11:20:46.740Z,3.67
2022-08-07T11:23:30.513Z,5.25
2022-08-07T11:26:13.157Z,5.40
2022-08-07T11:28:53.311Z,4.47
2022-08-07T11:31:53.922Z,4.57
2022-08-07T11:34:28.878Z,5.15
2022-08-07T11:37:06.707Z,3.67
2022-08-07T11:40:19.207Z,4.57
2022-08-07T11:43:11.590Z,6.22
2022-08-07T11:46:19.897Z,4.38
2022-08-07T11:49:49.987Z,4.82
2022-08-07T11:52:29.150Z,5.20
2022-08-07T11:56:25.149Z,4.90
2022-08-07T11:58:38.712Z,3.65
2022-08-07T12:01:06.703Z,4.18
2022-08-07T12:04:11.396Z,4.13
2022-08-07T12:07:08.089Z,3.97
2022-08-07T12:10:08.644Z,4.72
2022-08-07T12:12:55.233Z,3.97
2022-08-07T12:15:46.216Z,3.78
2022-08-07T12:18:30.523Z,5.13
2022-08-07T12:21:21.238Z,5.53
2022-08-07T12:24:37.703Z,3.53
2022-08-07T12:27:27.738Z,6.30
2022-08-07T12:30:05.281Z,4.10
2022-08-07T12:32:45.145Z,3.85
2022-08-07T12:35:16.173Z,3.67
2022-08-07T12:38:11.417Z,2.90
2022-08-07T12:40:48.488Z,4.20
2022-08-07T12:44:02.908Z,3.78
2022-08-07T12:46:34.696Z,3.42
2022-08-07T12:49:48.440Z,5.50
2022-08-07T12:52:46.535Z,3.05
2022-08-07T12:55:40.975Z,3.67
2022-08-07T12:58:12.955Z,4.13
2022-08-07T13:00:50.312Z,4.57
2022-08-07T13:03:59.151Z,3.97
2022-08-07T13:06:36.524Z,3.42
2022-08-07T13:10:19.312Z,3.88
2022-08-07T13:13:02.449Z,3.72
2022-08-07T13:15:37.327Z,4.55
2022-08-07T13:19:01.232Z,3.53
2022-08-07T13:21:57.649Z,3.25
2022-08-07T13:24:37.389Z,6.03
2022-08-07T13:27:14.106Z,6.10
2022-08-07T13:29:56.889Z,3.70
2022-08-07T13:32:41.258Z,3.17
2022-08-07T13:35:21.491Z,3.85
2022-08-07T13:38:01.468Z,3.05
2022-08-07T13:40:35.738Z,5.57
2022-08-07T13:43:15.347Z,3.42
2022-08-07T13:46:11.105Z,3.25
2022-08-07T13:48:38.728Z,3.78
2022-08-07T13:51:28.113Z,4.20
2022-08-07T13:54:00.705Z,3.83
2022-08-07T13:56:36.016Z,5.07
2022-08-07T13:59:31.415Z,2.63
2022-08-07T14:02:08.705Z,3.75
2022-08-07T14:04:50.211Z,4.13
2022-08-07T14:07:24.212Z,2.80
2022-08-07T14:10:01.230Z,4.10
2022-08-07T14:12:49.440Z,3.47
2022-08-07T14:15:35.031Z,2.70
2022-08-07T14:18:28.937Z,3.13
2022-08-07T14:22:00.477Z,3.25
2022-08-07T14:24:05.133Z,2.85
2022-08-07T14:30:06.590Z,5.57
2022-08-07T14:32:15.134Z,5.30
2022-08-07T14:34:46.952Z,2.95
2022-08-07T14:37:18.281Z,3.15
2022-08-07T14:40:15.885Z,2.25
2022-08-07T14:43:54.771Z,3.42
2022-08-07T14:51:23.955Z,3.92
2022-08-07T14:54:09.767Z,3.10
2022-08-07T14:56:46.774Z,4.80
2022-08-07T15:00:05.499Z,3.83
2022-08-07T15:02:31.677Z,2.38
2022-08-07T15:05:02.514Z,3.00
2022-08-07T15:07:51.392Z,4.20
2022-08-07T15:10:26.628Z,4.35
2022-08-07T15:13:11.664Z,3.70
2022-08-07T15:15:42.789Z,2.80
2022-08-07T15:18:34.027Z,3.75
2022-08-07T15:26:55.490Z,3.28
2022-08-07T15:35:16.757Z,4.15
2022-08-07T15:46:32.472Z,3.83
2022-08-07T15:49:13.131Z,3.17
2022-08-07T15:54:39.471Z,3.20
2022-08-07T15:57:10.714Z,3.17
2022-08-07T15:59:56.749Z,2.83
2022-08-07T16:02:30.031Z,3.08
2022-08-07T16:05:15.357Z,4.85
2022-08-07T16:08:32.608Z,3.95
2022-08-07T16:10:37.454Z,7.70
2022-08-07T16:13:39.541Z,3.38
2022-08-07T16:16:48.206Z,3.58
2022-08-07T16:19:43.194Z,4.38
2022-08-07T16:22:36.265Z,4.65
2022-08-07T16:25:54.692Z,4.55
2022-08-07T16:30:06.617Z,5.72
2022-08-07T16:32:42.373Z,2.72
2022-08-07T16:35:51.751Z,3.17
2022-08-07T16:38:09.741Z,3.25
2022-08-07T16:41:02.192Z,2.90
2022-08-07T16:44:05.886Z,3.00
2022-08-07T16:47:17.878Z,3.20
2022-08-07T16:50:39.416Z,3.10
2022-08-07T16:54:01.357Z,3.08
2022-08-07T16:56:22.302Z,3.13
2022-08-07T16:59:11.010Z,3.28
2022-08-07T17:02:05.372Z,3.15
2022-08-07T17:06:01.444Z,3.05
2022-08-07T17:07:59.444Z,3.10
2022-08-07T17:10:54.815Z,3.65
2022-08-07T17:13:41.843Z,4.00
2022-08-07T17:16:28.629Z,3.45
2022-08-07T17:19:04.753Z,4.47
2022-08-07T17:21:51.591Z,3.63
2022-08-07T17:24:31.377Z,3.22
2022-08-07T17:26:57.962Z,3.03
2022-08-07T17:30:16.052Z,4.25
2022-08-07T17:32:52.030Z,4.82
2022-08-07T17:35:50.271Z,3.40
2022-08-07T17:38:33.762Z,4.43
2022-08-07T17:42:00.909Z,3.58
2022-08-07T17:44:33.957Z,3.38
2022-08-07T17:47:42.412Z,3.35
2022-08-07T17:50:22.875Z,3.88
2022-08-07T17:53:05.926Z,3.20
2022-08-07T17:56:00.055Z,3.35
2022-08-07T17:58:46.449Z,3.60
2022-08-07T18:01:21.301Z,4.30
2022-08-07T18:04:16.458Z,4.60
2022-08-07T18:07:20.586Z,3.33
2022-08-07T18:10:06.596Z,3.05
2022-08-07T18:13:15.291Z,3.40
2022-08-07T18:15:59.087Z,4.32
2022-08-07T18:19:02.629Z,6.43
2022-08-07T18:21:51.847Z,6.28
2022-08-07T18:24:34.155Z,5.60
2022-08-07T18:27:17.943Z,5.72
2022-08-07T18:30:31.156Z,6.30
2022-08-07T18:33:28.070Z,6.93
2022-08-07T18:36:33.095Z,5.25
2022-08-07T18:40:06.754Z,5.22
2022-08-07T18:42:19.528Z,5.53
2022-08-07T18:45:40.202Z,8.63
2022-08-07T18:47:45.377Z,8.52
2022-08-07T18:50:38.715Z,9.70
2022-08-07T18:53:39.395Z,7.93
2022-08-07T18:56:32.842Z,10.68
2022-08-07T18:59:47.522Z,11.82
2022-08-07T19:02:32.158Z,10.00
2022-08-07T19:05:22.464Z,10.15
2022-08-07T19:07:58.095Z,10.70
2022-08-07T19:10:51.955Z,10.32
2022-08-07T19:13:25.934Z,9.65
2022-08-07T19:17:05.842Z,9.30
2022-08-07T19:19:37.872Z,9.60
2022-08-07T19:22:44.819Z,10.10
2022-08-07T19:26:22.642Z,9.65
2022-08-07T19:28:29.855Z,10.18
2022-08-07T19:31:42.158Z,11.13
2022-08-07T19:33:58.122Z,11.13
2022-08-07T19:36:30.569Z,7.95
2022-08-07T19:41:44.760Z,9.50
2022-08-07T19:44:21.709Z,10.07
2022-08-07T19:46:55.591Z,9.88
2022-08-07T19:49:58.621Z,9.98
2022-08-07T19:52:27.515Z,10.90
2022-08-07T19:54:57.264Z,10.52
2022-08-07T19:58:01.821Z,9.05
2022-08-07T20:00:29.190Z,10.07
2022-08-07T20:05:59.781Z,9.57
2022-08-07T20:08:24.434Z,10.13
2022-08-07T20:11:09.909Z,8.52
2022-08-07T20:13:46.051Z,9.23
2022-08-07T20:16:36.339Z,8.45
2022-08-07T20:19:10.866Z,8.10
2022-08-07T20:21:47.457Z,8.27
2022-08-07T20:24:23.168Z,9.68
2022-08-07T20:26:54.667Z,8.95
2022-08-07T20:29:48.181Z,9.02
2022-08-07T20:32:25.542Z,9.60
2022-08-07T20:34:57.291Z,9.25
2022-08-07T20:37:29.673Z,9.85
2022-08-07T20:40:04.999Z,8.45
2022-08-07T20:42:56.255Z,9.40
2022-08-07T20:46:24.349Z,8.90
2022-08-07T20:48:28.372Z,12.95
2022-08-07T20:51:04.185Z,8.52
2022-08-07T20:54:03.490Z,9.90
2022-08-07T20:56:29.471Z,8.73
2022-08-07T20:59:01.489Z,15.10
2022-08-07T21:04:22.402Z,8.52
2022-08-07T21:06:56.628Z,9.20
2022-08-07T21:09:35.495Z,8.18
2022-08-07T21:12:29.098Z,8.07
2022-08-07T21:14:59.663Z,7.95
2022-08-07T21:18:01.771Z,8.50
2022-08-07T21:20:29.831Z,8.48
2022-08-07T21:23:07.742Z,8.85
2022-08-07T21:25:44.670Z,7.93
2022-08-07T21:28:55.111Z,7.45
2022-08-07T21:32:42.439Z,9.00
2022-08-07T21:34:32.281Z,8.30
2022-08-07T21:37:57.228Z,7.38
2022-08-07T21:40:36.056Z,8.57
2022-08-07T21:43:11.042Z,10.07
2022-08-07T21:46:09.386Z,7.75
2022-08-07T21:48:43.795Z,8.13
2022-08-07T21:51:51.593Z,7.33
2022-08-07T21:54:34.129Z,8.40
2022-08-07T21:57:31.234Z,8.70
2022-08-07T22:00:22.619Z,7.70
2022-08-07T22:06:06.132Z,8.05
2022-08-07T22:08:57.009Z,8.90
2022-08-07T22:11:24.532Z,8.57
2022-08-07T22:14:00.191Z,8.57
2022-08-07T22:16:44.882Z,7.43
2022-08-07T22:19:29.675Z,8.20
2022-08-07T22:22:17.663Z,7.68
2022-08-07T22:24:55.828Z,7.05
2022-08-07T22:28:07.587Z,7.03
2022-08-07T22:30:52.087Z,7.10
2022-08-07T22:33:53.347Z,7.68
2022-08-07T22:36:46.589Z,7.97
2022-08-07T22:39:53.518Z,7.10
2022-08-07T22:42:29.393Z,7.25
2022-08-07T22:45:02.439Z,7.15
2022-08-07T22:48:13.721Z,6.43
2022-08-07T22:50:53.378Z,6.45
2022-08-07T22:54:07.982Z,6.40
2022-08-07T22:57:00.923Z,6.70
2022-08-07T22:59:52.122Z,6.65
2022-08-07T23:02:30.012Z,7.72
2022-08-07T23:06:08.220Z,6.30
2022-08-07T23:08:38.092Z,6.68
2022-08-07T23:11:50.246Z,7.72
2022-08-07T23:17:25.710Z,7.07
2022-08-07T23:20:51.373Z,6.72
2022-08-07T23:24:05.425Z,6.72
2022-08-07T23:26:27.513Z,6.18
2022-08-07T23:29:42.838Z,7.00
2022-08-07T23:34:19.549Z,5.97
2022-08-07T23:35:19.312Z,7.68
2022-08-07T23:38:08.490Z,6.20
2022-08-07T23:40:49.298Z,5.97
2022-08-07T23:43:23.595Z,6.05
2022-08-07T23:46:33.817Z,6.82
2022-08-07T23:49:15.266Z,7.03
2022-08-07T23:53:05.882Z,6.07
2022-08-07T23:54:46.123Z,5.30
2022-08-07T23:57:30.563Z,5.95
